Time;durP1;ratioP1;P1;durP2;ratioP2;P2;SDS_P1;SDS_P2;PMS_P1;PMS_P2;Temp;Humidity;BMP_temperature;BMP_pressure;BME280_temperature;BME280_humidity;BME280_pressure;Samples;Min_cycle;Max_cycle;Signal;HPM_P1;HPM_P2
2022/11/20 00:00:50;;;;;;;6.40;4.20;;;;;;;;;;4384441;32;59920;-64
2022/11/20 00:03:37;;;;;;;6.45;4.80;;;;;;;;;;4371737;32;70678;-64
2022/11/20 00:06:25;;;;;;;6.80;4.87;;;;;;;;;;4360645;32;70052;-64
2022/11/20 00:09:11;;;;;;;7.68;5.25;;;;;;;;;;4372104;32;67802;-64
2022/11/20 00:11:58;;;;;;;;;;;;;;;;;;4384211;32;71129;-64
2022/11/20 00:14:45;;;;;;;7.62;4.53;;;;;;;;;;4382554;32;68006;-64
2022/11/20 00:17:32;;;;;;;8.10;4.68;;;;;;;;;;4361411;32;69248;-63
2022/11/20 00:20:18;;;;;;;;;;;;;;;;;;4372558;32;66759;-64
2022/11/20 00:23:06;;;;;;;7.90;4.87;;;;;;;;;;4382600;32;71732;-63
2022/11/20 00:25:53;;;;;;;6.95;4.72;;;;;;;;;;4371817;32;66001;-64
2022/11/20 00:28:40;;;;;;;6.78;5.07;;;;;;;;;;4383861;32;67776;-63
2022/11/20 00:31:28;;;;;;;5.62;4.40;;;;;;;;;;4371497;32;60138;-63
2022/11/20 00:34:15;;;;;;;6.55;4.68;;;;;;;;;;4382409;32;70604;-64
2022/11/20 00:37:01;;;;;;;7.45;5.00;;;;;;;;;;4382319;32;68130;-63
2022/11/20 00:39:48;;;;;;;6.37;4.80;;;;;;;;;;4361189;32;67720;-64
2022/11/20 00:42:34;;;;;;;7.47;5.15;;;;;;;;;;4371964;32;59007;-64
2022/11/20 00:45:21;;;;;;;6.62;5.03;;;;;;;;;;4371517;32;70732;-64
2022/11/20 00:48:08;;;;;;;8.90;5.00;;;;;;;;;;4371523;32;68893;-64
2022/11/20 00:50:54;;;;;;;5.75;4.30;;;;;;;;;;4360364;32;68596;-63
2022/11/20 00:53:41;;;;;;;6.97;4.68;;;;;;;;;;4360308;32;71746;-64
2022/11/20 00:56:28;;;;;;;6.87;4.65;;;;;;;;;;4371447;32;65995;-64
2022/11/20 00:59:15;;;;;;;7.55;4.97;;;;;;;;;;4361094;32;66950;-63
2022/11/20 01:02:02;;;;;;;6.47;4.90;;;;;;;;;;4381997;32;59100;-63
2022/11/20 01:04:48;;;;;;;6.82;5.00;;;;;;;;;;4381660;32;70449;-64
2022/11/20 01:07:35;;;;;;;6.68;4.90;;;;;;;;;;4360984;32;66085;-64
2022/11/20 01:10:21;;;;;;;7.05;4.93;;;;;;;;;;4370902;32;68335;-64
2022/11/20 01:16:22;;;;;;;8.18;5.18;;;;;;;;;;4373380;32;69505;-64
2022/11/20 01:19:13;;;;;;;6.57;4.45;;;;;;;;;;4381846;32;68624;-63
2022/11/20 01:22:00;;;;;;;6.70;4.97;;;;;;;;;;4381915;32;67528;-64
2022/11/20 01:24:47;;;;;;;7.15;5.12;;;;;;;;;;4370994;32;70756;-64
2022/11/20 01:27:33;;;;;;;7.50;4.82;;;;;;;;;;4371463;32;64945;-64
2022/11/20 01:30:20;;;;;;;8.55;5.40;;;;;;;;;;4371431;32;69258;-64
2022/11/20 01:33:07;;;;;;;6.70;4.78;;;;;;;;;;4371130;32;67536;-64
2022/11/20 01:36:03;;;;;;;7.00;4.95;;;;;;;;;;4381642;32;71938;-63
2022/11/20 01:38:53;;;;;;;6.90;5.30;;;;;;;;;;4371128;32;66258;-64
2022/11/20 01:44:51;;;;;;;6.78;4.68;;;;;;;;;;4372325;32;61007;-64
2022/11/20 01:47:44;;;;;;;6.62;4.80;;;;;;;;;;4370943;32;69841;-63
2022/11/20 01:50:32;;;;;;;7.70;5.25;;;;;;;;;;4381563;32;68992;-64
2022/11/20 01:53:22;;;;;;;8.70;5.97;;;;;;;;;;4382016;32;66803;-63
2022/11/20 01:56:11;;;;;;;7.43;5.15;;;;;;;;;;4371222;32;59178;-63
2022/11/20 01:59:00;;;;;;;8.60;5.50;;;;;;;;;;4370688;32;70629;-64
2022/11/20 02:01:48;;;;;;;8.75;5.62;;;;;;;;;;4381057;32;68733;-63
2022/11/20 02:04:35;;;;;;;7.70;5.50;;;;;;;;;;4370833;32;66639;-64
2022/11/20 02:07:22;;;;;;;8.65;5.78;;;;;;;;;;4370600;32;71738;-63
2022/11/20 02:10:09;;;;;;;8.68;5.15;;;;;;;;;;4360447;32;66202;-65
2022/11/20 02:16:01;;;;;;;7.97;5.22;;;;;;;;;;4381690;32;59794;-64
2022/11/20 02:18:48;;;;;;;8.05;5.37;;;;;;;;;;4370601;32;69700;-63
2022/11/20 02:22:04;;;;;;;7.20;5.18;;;;;;;;;;4382610;32;65950;-63
2022/11/20 02:24:51;;;;;;;9.60;5.43;;;;;;;;;;4382712;32;67624;-63
2022/11/20 02:27:38;;;;;;;9.52;5.35;;;;;;;;;;4384244;32;59628;-63
2022/11/20 02:30:24;;;;;;;;;;;;;;;;;;4384138;32;70304;-63
2022/11/20 02:33:11;;;;;;;7.78;5.32;;;;;;;;;;4385258;32;68851;-63
2022/11/20 02:35:57;;;;;;;6.80;4.78;;;;;;;;;;4385116;32;67667;-64
2022/11/20 02:38:44;;;;;;;7.55;5.10;;;;;;;;;;4361496;32;72220;-64
2022/11/20 02:41:32;;;;;;;6.95;5.03;;;;;;;;;;4383838;32;65854;-64
2022/11/20 02:44:19;;;;;;;7.80;4.50;;;;;;;;;;4383874;32;67174;-64
2022/11/20 02:47:06;;;;;;;;;;;;;;;;;;4383939;32;66793;-63
2022/11/20 02:49:53;;;;;;;7.03;4.80;;;;;;;;;;4384957;32;70934;-64
2022/11/20 02:52:39;;;;;;;;;;;;;;;;;;4362998;32;64824;-63
2022/11/20 02:55:26;;;;;;;6.03;4.32;;;;;;;;;;4383708;32;68113;-63
2022/11/20 02:58:13;;;;;;;7.12;4.57;;;;;;;;;;4372601;32;60652;-63
2022/11/20 03:01:00;;;;;;;7.30;4.68;;;;;;;;;;4361773;32;71597;-64
2022/11/20 03:03:48;;;;;;;;;;;;;;;;;;4361533;32;69753;-63
2022/11/20 03:06:34;;;;;;;;;;;;;;;;;;4383544;32;69271;-63
2022/11/20 03:09:21;;;;;;;5.95;4.37;;;;;;;;;;4383858;32;71127;-64
2022/11/20 03:12:08;;;;;;;6.82;4.70;;;;;;;;;;4383558;32;70571;-64
2022/11/20 03:14:55;;;;;;;6.20;4.30;;;;;;;;;;4372699;32;69621;-64
2022/11/20 03:17:41;;;;;;;6.40;4.03;;;;;;;;;;4372179;32;68799;-64
2022/11/20 03:20:28;;;;;;;7.22;4.35;;;;;;;;;;4372539;32;71735;-64
2022/11/20 03:23:14;;;;;;;7.80;4.95;;;;;;;;;;4372138;32;66034;-62
2022/11/20 03:26:15;;;;;;;6.95;4.47;;;;;;;;;;4372565;32;67594;-62
2022/11/20 03:29:05;;;;;;;7.60;5.15;;;;;;;;;;4383567;32;59207;-62
2022/11/20 03:31:52;;;;;;;6.12;4.40;;;;;;;;;;4372686;32;70413;-64
2022/11/20 03:34:38;;;;;;;7.78;4.85;;;;;;;;;;4372123;32;69399;-65
2022/11/20 03:37:25;;;;;;;8.13;5.35;;;;;;;;;;4384366;32;67625;-64
2022/11/20 03:40:12;;;;;;;6.43;4.60;;;;;;;;;;4371864;32;59742;-62
2022/11/20 03:42:59;;;;;;;7.55;4.47;;;;;;;;;;4361829;32;70328;-64
2022/11/20 03:45:46;;;;;;;7.15;4.80;;;;;;;;;;4362048;32;68405;-63
2022/11/20 03:48:33;;;;;;;7.53;4.97;;;;;;;;;;4350420;32;68399;-64
2022/11/20 03:51:22;;;;;;;7.57;5.15;;;;;;;;;;4382767;32;71801;-64
2022/11/20 03:54:09;;;;;;;7.32;4.82;;;;;;;;;;4382970;32;65922;-63
2022/11/20 03:56:56;;;;;;;6.60;4.72;;;;;;;;;;4372525;32;68163;-64
2022/11/20 03:59:42;;;;;;;6.75;4.60;;;;;;;;;;4360958;32;68100;-64
2022/11/20 04:02:30;;;;;;;7.93;5.43;;;;;;;;;;4382390;32;70783;-64
2022/11/20 04:05:17;;;;;;;8.43;5.43;;;;;;;;;;4361633;32;65719;-64
2022/11/20 04:08:03;;;;;;;9.02;5.15;;;;;;;;;;4361593;32;67642;-64
2022/11/20 04:10:50;;;;;;;7.35;5.32;;;;;;;;;;4361124;32;60852;-64
2022/11/20 04:13:37;;;;;;;;;;;;;;;;;;4361200;32;70272;-63
2022/11/20 04:16:25;;;;;;;9.68;5.15;;;;;;;;;;4371325;32;70838;-64
2022/11/20 04:19:13;;;;;;;8.00;5.20;;;;;;;;;;4382654;32;67541;-63
2022/11/20 04:22:00;;;;;;;8.00;5.32;;;;;;;;;;4371749;32;71429;-63
2022/11/20 04:24:47;;;;;;;;;;;;;;;;;;4361030;32;71748;-63
2022/11/20 04:27:34;;;;;;;9.52;6.03;;;;;;;;;;4382511;32;69596;-63
2022/11/20 04:30:20;;;;;;;8.77;5.28;;;;;;;;;;4382595;32;67295;-64
2022/11/20 04:33:08;;;;;;;7.47;4.75;;;;;;;;;;4371705;32;70715;-63
2022/11/20 04:35:54;;;;;;;7.90;4.72;;;;;;;;;;4382608;32;64844;-63
2022/11/20 04:38:41;;;;;;;8.32;5.05;;;;;;;;;;4371229;32;68953;-64
2022/11/20 04:41:35;;;;;;;7.05;4.60;;;;;;;;;;4383853;32;59014;-64
2022/11/20 04:44:22;;;;;;;8.02;4.70;;;;;;;;;;4382289;32;70480;-63
2022/11/20 04:47:08;;;;;;;6.85;4.57;;;;;;;;;;4370773;32;68205;-64
2022/11/20 04:49:55;;;;;;;6.75;4.60;;;;;;;;;;4371601;32;67882;-64
2022/11/20 04:52:42;;;;;;;6.90;4.45;;;;;;;;;;4371525;32;59819;-64
2022/11/20 04:55:28;;;;;;;7.85;4.37;;;;;;;;;;4371129;32;70286;-64
2022/11/20 04:58:15;;;;;;;7.07;4.37;;;;;;;;;;4381442;32;69543;-64
2022/11/20 05:01:10;;;;;;;6.37;4.45;;;;;;;;;;4371546;32;67668;-64
2022/11/20 05:03:56;;;;;;;8.13;4.62;;;;;;;;;;4370610;32;73574;-64
2022/11/20 05:06:43;;;;;;;6.72;4.87;;;;;;;;;;4370839;32;67674;-62
2022/11/20 05:09:30;;;;;;;8.40;4.87;;;;;;;;;;4371635;32;67587;-63
2022/11/20 05:12:16;;;;;;;7.55;4.62;;;;;;;;;;4371528;32;60141;-64
2022/11/20 05:15:03;;;;;;;6.87;4.43;;;;;;;;;;4360726;32;70861;-64
2022/11/20 05:17:50;;;;;;;;;;;;;;;;;;4360564;32;67733;-64
2022/11/20 05:20:36;;;;;;;7.55;4.50;;;;;;;;;;4371456;32;67403;-64
2022/11/20 05:23:23;;;;;;;6.05;3.80;;;;;;;;;;4383479;32;60509;-62
2022/11/20 05:26:23;;;;;;;6.70;4.40;;;;;;;;;;4382926;32;69691;-63
2022/11/20 05:29:13;;;;;;;6.12;4.40;;;;;;;;;;4360124;32;70397;-63
2022/11/20 05:32:00;;;;;;;6.30;4.07;;;;;;;;;;4360846;32;67786;-64
2022/11/20 05:34:46;;;;;;;;;;;;;;;;;;4372663;32;71328;-62
2022/11/20 05:37:33;;;;;;;6.82;3.70;;;;;;;;;;4371582;32;66215;-63
2022/11/20 05:40:20;;;;;;;6.60;4.28;;;;;;;;;;4360975;32;68564;-63
2022/11/20 05:43:07;;;;;;;5.50;3.22;;;;;;;;;;4381795;32;67783;-63
2022/11/20 05:45:54;;;;;;;6.78;4.40;;;;;;;;;;4381506;32;70985;-62
2022/11/20 05:48:42;;;;;;;6.30;3.90;;;;;;;;;;4383011;32;66246;-63
2022/11/20 05:51:29;;;;;;;6.57;4.18;;;;;;;;;;4371052;32;67936;-64
2022/11/20 05:54:16;;;;;;;7.65;4.53;;;;;;;;;;4381921;32;59960;-65
2022/11/20 05:57:03;;;;;;;6.35;4.10;;;;;;;;;;4370720;32;70320;-64
2022/11/20 05:59:49;;;;;;;;;;;;;;;;;;4383173;32;69383;-64
2022/11/20 06:02:36;;;;;;;6.97;4.18;;;;;;;;;;4380793;32;69187;-64
2022/11/20 06:05:23;;;;;;;6.50;4.15;;;;;;;;;;4371028;32;60386;-63
2022/11/20 06:08:10;;;;;;;;;;;;;;;;;;4381634;32;69811;-64
2022/11/20 06:10:57;;;;;;;4.90;2.72;;;;;;;;;;4381403;32;69777;-64
2022/11/20 06:13:44;;;;;;;7.53;4.30;;;;;;;;;;4381223;32;68261;-64
2022/11/20 06:16:31;;;;;;;6.75;4.62;;;;;;;;;;4359358;32;72478;-64
2022/11/20 06:19:18;;;;;;;6.30;4.20;;;;;;;;;;4360227;32;66044;-65
2022/11/20 06:22:05;;;;;;;6.50;4.07;;;;;;;;;;4369668;32;68653;-62
2022/11/20 06:24:51;;;;;;;6.50;3.92;;;;;;;;;;4349033;32;60521;-63
2022/11/20 06:27:37;;;;;;;6.62;4.50;;;;;;;;;;4369293;32;71855;-63
2022/11/20 06:30:24;;;;;;;8.05;4.22;;;;;;;;;;4370685;32;65674;-63
2022/11/20 06:33:10;;;;;;;5.87;4.03;;;;;;;;;;4382587;32;68097;-64
2022/11/20 06:35:58;;;;;;;8.07;4.43;;;;;;;;;;4381355;32;59295;-63
2022/11/20 06:38:45;;;;;;;6.22;4.25;;;;;;;;;;4370380;32;70471;-63
2022/11/20 06:41:32;;;;;;;6.35;3.67;;;;;;;;;;4370468;32;69309;-63
2022/11/20 06:44:19;;;;;;;7.20;4.53;;;;;;;;;;4360042;32;67790;-63
2022/11/20 06:47:06;;;;;;;8.07;4.80;;;;;;;;;;4370183;32;71113;-63
2022/11/20 06:49:53;;;;;;;6.60;4.75;;;;;;;;;;4370967;32;65837;-64
2022/11/20 06:52:40;;;;;;;7.45;4.65;;;;;;;;;;4382274;32;69266;-64
2022/11/20 06:55:27;;;;;;;7.30;4.75;;;;;;;;;;4370404;32;66376;-64
2022/11/20 06:58:14;;;;;;;;;;;;;;;;;;4370430;32;70831;-63
2022/11/20 07:01:02;;;;;;;7.18;4.47;;;;;;;;;;4370498;32;65408;-63
2022/11/20 07:03:50;;;;;;;7.80;4.90;;;;;;;;;;4369870;32;67669;-63
2022/11/20 07:06:37;;;;;;;6.82;4.05;;;;;;;;;;4382647;32;59397;-63
2022/11/20 07:09:26;;;;;;;5.65;4.03;;;;;;;;;;4371001;32;70276;-62
2022/11/20 07:12:13;;;;;;;7.20;4.25;;;;;;;;;;4374012;32;69662;-63
2022/11/20 07:14:59;;;;;;;5.85;3.85;;;;;;;;;;4374186;32;66480;-63
2022/11/20 07:17:46;;;;;;;6.50;4.12;;;;;;;;;;4374126;32;60363;-64
2022/11/20 07:20:33;;;;;;;5.93;2.90;;;;;;;;;;4363430;32;70667;-64
2022/11/20 07:23:20;;;;;;;6.30;4.07;;;;;;;;;;4362227;32;68518;-64
2022/11/20 07:26:08;;;;;;;6.20;4.18;;;;;;;;;;4383278;32;66800;-64
2022/11/20 07:28:55;;;;;;;7.25;4.80;;;;;;;;;;4372535;32;71744;-64
2022/11/20 07:31:42;;;;;;;7.55;4.40;;;;;;;;;;4372721;32;66083;-63
2022/11/20 07:34:29;;;;;;;4.35;2.95;;;;;;;;;;4372614;32;67187;-63
2022/11/20 07:37:16;;;;;;;5.55;3.45;;;;;;;;;;4372926;32;59250;-64
2022/11/20 07:42:51;;;;;;;7.62;4.62;;;;;;;;;;3847212;37;43531;-64
2022/11/20 07:45:38;;;;;;;7.22;4.37;;;;;;;;;;4398766;32;60738;-64
2022/11/20 07:48:25;;;;;;;7.97;4.93;;;;;;;;;;4409666;32;70776;-64
2022/11/20 07:51:11;;;;;;;9.48;5.70;;;;;;;;;;4398769;32;69185;-63
2022/11/20 07:53:58;;;;;;;8.45;4.68;;;;;;;;;;4387692;32;68230;-62
2022/11/20 07:56:45;;;;;;;7.35;4.50;;;;;;;;;;4410778;32;70773;-64
2022/11/20 07:59:31;;;;;;;8.27;5.43;;;;;;;;;;4383460;32;64800;-63
2022/11/20 08:02:18;;;;;;;8.63;5.53;;;;;;;;;;4394181;32;67438;-63
2022/11/20 08:05:05;;;;;;;9.35;5.55;;;;;;;;;;4383816;32;59089;-64
2022/11/20 08:07:51;;;;;;;8.50;5.15;;;;;;;;;;4383235;32;71551;-63
2022/11/20 08:10:38;;;;;;;8.57;5.03;;;;;;;;;;4383444;32;64934;-64
2022/11/20 08:16:31;;;;;;;8.85;5.80;;;;;;;;;;4385736;32;59898;-62
2022/11/20 08:19:18;;;;;;;6.87;4.30;;;;;;;;;;4383237;32;71127;-63
2022/11/20 08:22:05;;;;;;;9.43;5.85;;;;;;;;;;4372567;32;69436;-63
2022/11/20 08:24:52;;;;;;;;;;;;;;;;;;4394220;32;68019;-64
2022/11/20 08:27:38;;;;;;;9.90;5.87;;;;;;;;;;4394036;32;72191;-64
2022/11/20 08:30:25;;;;;;;;;;;;;;;;;;4383747;32;65192;-63
2022/11/20 08:33:12;;;;;;;9.75;5.50;;;;;;;;;;4383433;32;69378;-64
2022/11/20 08:36:03;;;;;;;7.97;5.22;;;;;;;;;;4393751;32;67845;-63
2022/11/20 08:38:54;;;;;;;8.00;5.12;;;;;;;;;;4382969;32;70805;-64
2022/11/20 08:41:41;;;;;;;8.65;5.35;;;;;;;;;;4382004;32;65839;-64
2022/11/20 08:44:27;;;;;;;8.57;5.72;;;;;;;;;;4383034;32;68272;-64
2022/11/20 08:47:14;;;;;;;;;;;;;;;;;;4383554;32;59154;-65
2022/11/20 08:50:01;;;;;;;8.57;5.43;;;;;;;;;;4383160;32;69648;-64
2022/11/20 08:52:47;;;;;;;8.07;5.20;;;;;;;;;;4367552;32;69486;-63
2022/11/20 08:55:35;;;;;;;8.50;5.25;;;;;;;;;;4372701;32;66773;-64
2022/11/20 08:58:22;;;;;;;10.40;5.43;;;;;;;;;;4372926;32;60355;-64
2022/11/20 09:01:08;;;;;;;8.50;5.78;;;;;;;;;;4382898;32;70344;-64
2022/11/20 09:03:59;;;;;;;7.12;4.45;;;;;;;;;;4361045;32;70231;-64
2022/11/20 09:06:50;;;;;;;9.98;5.78;;;;;;;;;;4372947;32;66846;-64
2022/11/20 09:09:37;;;;;;;8.55;5.57;;;;;;;;;;4383023;32;71800;-64
2022/11/20 09:12:24;;;;;;;8.25;5.10;;;;;;;;;;4372597;32;64900;-62
2022/11/20 09:15:11;;;;;;;9.93;5.78;;;;;;;;;;4361351;32;68545;-63
2022/11/20 09:18:00;;;;;;;10.45;5.80;;;;;;;;;;4383409;32;60147;-63
2022/11/20 09:20:46;;;;;;;9.27;5.78;;;;;;;;;;4361567;32;70703;-64
2022/11/20 09:23:35;;;;;;;9.80;6.37;;;;;;;;;;4384432;32;65647;-63
2022/11/20 09:26:21;;;;;;;9.48;5.90;;;;;;;;;;4371872;32;68308;-64
2022/11/20 09:29:08;;;;;;;11.02;6.87;;;;;;;;;;4372519;32;59194;-63
2022/11/20 09:31:54;;;;;;;12.73;6.57;;;;;;;;;;4361154;32;70221;-63
2022/11/20 09:34:41;;;;;;;10.63;6.80;;;;;;;;;;4361679;32;69178;-64
2022/11/20 09:37:28;;;;;;;8.48;5.85;;;;;;;;;;4361601;32;66512;-64
2022/11/20 09:40:21;;;;;;;;;;;;;;;;;;4361757;32;70845;-64
2022/11/20 09:43:33;;;;;;;11.73;7.10;;;;;;;;;;4382868;32;66013;-64
2022/11/20 09:46:52;;;;;;;9.15;6.12;;;;;;;;;;4382459;32;66026;-63
2022/11/20 09:50:19;;;;;;;10.50;6.47;;;;;;;;;;4382598;32;67247;-63
2022/11/20 09:53:28;;;;;;;11.40;6.50;;;;;;;;;;4371426;32;71498;-62
2022/11/20 09:56:15;;;;;;;9.57;6.00;;;;;;;;;;4371929;32;66163;-64
2022/11/20 09:59:05;;;;;;;9.02;6.00;;;;;;;;;;4371443;32;68689;-62
2022/11/20 10:01:51;;;;;;;9.07;5.70;;;;;;;;;;4382758;32;59290;-64
2022/11/20 10:04:49;;;;;;;8.55;5.65;;;;;;;;;;4359987;32;71285;-64
2022/11/20 10:07:38;;;;;;;;;;;;;;;;;;4372208;32;68452;-65
2022/11/20 10:10:36;;;;;;;8.98;5.78;;;;;;;;;;4382661;32;66798;-64
2022/11/20 10:14:16;;;;;;;8.85;5.78;;;;;;;;;;4382625;32;58960;-64
2022/11/20 10:17:18;;;;;;;8.93;5.72;;;;;;;;;;4336032;32;70503;-64
2022/11/20 10:20:36;;;;;;;8.90;5.55;;;;;;;;;;4382263;32;69517;-63
2022/11/20 10:23:36;;;;;;;7.55;4.85;;;;;;;;;;4378467;32;68075;-63
2022/11/20 10:26:42;;;;;;;7.18;4.95;;;;;;;;;;4361299;32;71509;-63
2022/11/20 10:29:38;;;;;;;7.90;4.40;;;;;;;;;;4382171;32;65792;-63
2022/11/20 10:32:31;;;;;;;8.77;5.07;;;;;;;;;;4382168;32;67931;-63
2022/11/20 10:35:37;;;;;;;7.53;5.00;;;;;;;;;;4382376;32;59269;-62
2022/11/20 10:38:58;;;;;;;8.57;5.10;;;;;;;;;;4370904;32;70946;-63
2022/11/20 10:41:48;;;;;;;8.20;5.32;;;;;;;;;;4365971;32;67154;-64
2022/11/20 10:47:42;;;;;;;7.80;5.72;;;;;;;;;;4382494;32;59849;-63
2022/11/20 10:51:04;;;;;;;8.05;5.72;;;;;;;;;;3847499;37;43389;-64
2022/11/20 10:53:52;;;;;;;9.73;5.50;;;;;;;;;;4399222;32;59019;-64
2022/11/20 10:56:51;;;;;;;10.57;5.50;;;;;;;;;;4398649;32;70777;-63
2022/11/20 10:59:53;;;;;;;8.73;5.72;;;;;;;;;;4383033;32;69914;-63
2022/11/20 11:02:44;;;;;;;6.95;5.03;;;;;;;;;;4394101;32;67252;-64
2022/11/20 11:05:41;;;;;;;6.80;4.18;;;;;;;;;;4382922;32;71390;-64
2022/11/20 11:08:34;;;;;;;7.78;5.15;;;;;;;;;;4394159;32;65740;-63
2022/11/20 11:11:30;;;;;;;8.82;5.43;;;;;;;;;;4383548;32;67232;-62
2022/11/20 11:14:17;;;;;;;9.35;5.87;;;;;;;;;;4373239;32;60424;-64
2022/11/20 11:17:04;;;;;;;8.05;5.60;;;;;;;;;;4383405;32;71887;-64
2022/11/20 11:20:22;;;;;;;7.30;4.82;;;;;;;;;;4394052;32;64984;-64
2022/11/20 11:23:33;;;;;;;9.40;5.15;;;;;;;;;;4382899;32;68530;-64
2022/11/20 11:26:21;;;;;;;7.55;4.93;;;;;;;;;;4394480;32;60225;-64
2022/11/20 11:29:18;;;;;;;8.45;5.20;;;;;;;;;;4372504;32;69582;-63
2022/11/20 11:32:22;;;;;;;7.30;5.17;;;;;;;;;;4383175;32;69087;-64
2022/11/20 11:35:28;;;;;;;9.00;5.50;;;;;;;;;;4393978;32;67817;-63
2022/11/20 11:38:19;;;;;;;9.20;5.55;;;;;;;;;;4361152;32;72256;-64
2022/11/20 11:41:07;;;;;;;9.40;5.37;;;;;;;;;;4394249;32;66188;-62
2022/11/20 11:47:31;;;;;;;7.43;5.28;;;;;;;;;;4394334;32;66740;-63
2022/11/20 11:50:23;;;;;;;8.65;5.00;;;;;;;;;;4393281;32;70696;-64
2022/11/20 11:53:13;;;;;;;7.68;5.22;;;;;;;;;;4395204;32;65871;-64
2022/11/20 11:56:10;;;;;;;7.53;4.53;;;;;;;;;;4394964;32;67563;-62
2022/11/20 11:59:00;;;;;;;8.43;5.20;;;;;;;;;;4382642;32;61529;-64
2022/11/20 12:01:55;;;;;;;7.95;5.43;;;;;;;;;;4363587;32;70694;-63
2022/11/20 12:04:50;;;;;;;7.68;5.18;;;;;;;;;;4372116;32;69802;-63
2022/11/20 12:07:42;;;;;;;7.75;5.05;;;;;;;;;;4383279;32;66321;-64
2022/11/20 12:10:45;;;;;;;8.30;5.35;;;;;;;;;;4372420;32;61177;-63
2022/11/20 12:13:58;;;;;;;7.18;5.00;;;;;;;;;;4371627;32;70329;-65
2022/11/20 12:16:44;;;;;;;8.60;4.78;;;;;;;;;;4384376;32;68273;-63
2022/11/20 12:19:33;;;;;;;9.98;6.45;;;;;;;;;;4361868;32;67972;-63
2022/11/20 12:22:44;;;;;;;17.00;10.93;;;;;;;;;;4361952;32;71712;-64
2022/11/20 12:25:36;;;;;;;18.45;10.82;;;;;;;;;;4361928;32;64603;-64
2022/11/20 12:29:14;;;;;;;21.48;10.98;;;;;;;;;;4383230;32;67531;-62
2022/11/20 12:32:15;;;;;;;13.68;9.25;;;;;;;;;;4303337;32;60564;-62
2022/11/20 12:35:05;;;;;;;17.05;9.70;;;;;;;;;;4326195;32;69821;-63
2022/11/20 12:38:01;;;;;;;13.90;8.55;;;;;;;;;;4393739;32;66453;-64
2022/11/20 12:45:11;;;;;;;12.52;8.55;;;;;;;;;;4377741;32;60150;-64
2022/11/20 12:48:01;;;;;;;14.57;7.85;;;;;;;;;;4360822;32;71303;-63
2022/11/20 12:50:53;;;;;;;12.43;7.37;;;;;;;;;;4372053;32;69197;-64
2022/11/20 12:53:52;;;;;;;14.52;7.95;;;;;;;;;;4371404;32;67164;-63
2022/11/20 12:56:39;;;;;;;13.10;8.43;;;;;;;;;;4371327;32;72916;-63
2022/11/20 12:59:53;;;;;;;13.98;8.25;;;;;;;;;;4371371;32;64831;-64
2022/11/20 13:03:16;;;;;;;12.43;7.95;;;;;;;;;;4371996;32;67609;-62
2022/11/20 13:06:17;;;;;;;14.00;8.80;;;;;;;;;;4361459;32;67615;-64
2022/11/20 13:09:06;;;;;;;14.13;9.48;;;;;;;;;;4371746;32;71543;-64
2022/11/20 13:12:05;;;;;;;16.77;9.70;;;;;;;;;;4371440;32;64769;-65
2022/11/20 13:14:59;;;;;;;17.62;10.48;;;;;;;;;;4383895;32;67171;-64
2022/11/20 13:17:57;;;;;;;12.07;6.95;;;;;;;;;;4372011;32;60564;-63
2022/11/20 13:20:46;;;;;;;14.87;7.70;;;;;;;;;;4382289;32;70415;-63
2022/11/20 13:23:33;;;;;;;13.38;7.87;;;;;;;;;;4382486;32;69172;-63
2022/11/20 13:26:26;;;;;;;10.75;6.90;;;;;;;;;;4382524;32;67759;-64
2022/11/20 13:29:18;;;;;;;12.75;7.53;;;;;;;;;;4360796;32;59870;-64
2022/11/20 13:32:14;;;;;;;10.18;7.10;;;;;;;;;;4371607;32;70657;-63
2022/11/20 13:35:04;;;;;;;12.95;7.95;;;;;;;;;;4381593;32;70333;-64
2022/11/20 13:38:01;;;;;;;12.10;7.43;;;;;;;;;;4371643;32;67697;-66
2022/11/20 13:41:27;;;;;;;10.68;6.80;;;;;;;;;;4382049;32;71774;-63
2022/11/20 13:44:14;;;;;;;11.32;7.28;;;;;;;;;;4362377;32;66598;-64
2022/11/20 13:47:01;;;;;;;13.70;8.00;;;;;;;;;;4371572;32;67137;-64
2022/11/20 13:49:48;;;;;;;;;;;;;;;;;;4383579;32;59286;-64
2022/11/20 13:53:01;;;;;;;11.68;6.43;;;;;;;;;;4382011;32;70537;-64
2022/11/20 13:56:05;;;;;;;10.82;6.85;;;;;;;;;;4371237;32;65527;-64
2022/11/20 13:59:21;;;;;;;11.95;7.00;;;;;;;;;;4371305;32;67318;-64
2022/11/20 14:02:18;;;;;;;11.10;7.05;;;;;;;;;;4373067;32;60339;-64
2022/11/20 14:05:06;;;;;;;10.75;7.18;;;;;;;;;;4370801;32;71603;-64
2022/11/20 14:07:52;;;;;;;10.35;6.68;;;;;;;;;;4360625;32;68980;-64
2022/11/20 14:10:39;;;;;;;11.88;7.28;;;;;;;;;;4381743;32;67151;-64
2022/11/20 14:13:26;;;;;;;;;;;;;;;;;;4371446;32;71628;-64
2022/11/20 14:16:12;;;;;;;14.52;8.40;;;;;;;;;;4383262;32;65936;-63
2022/11/20 14:19:21;;;;;;;10.00;6.87;;;;;;;;;;4360286;32;68033;-63
2022/11/20 14:22:09;;;;;;;10.80;6.40;;;;;;;;;;4381644;32;67897;-64
2022/11/20 14:25:06;;;;;;;11.80;7.22;;;;;;;;;;4370614;32;71748;-63
2022/11/20 14:27:55;;;;;;;12.57;7.45;;;;;;;;;;4371109;32;65405;-65
2022/11/20 14:30:47;;;;;;;11.12;6.97;;;;;;;;;;4370171;32;68179;-64
2022/11/20 14:33:35;;;;;;;11.68;7.87;;;;;;;;;;4382102;32;60015;-63
2022/11/20 14:36:24;;;;;;;13.13;7.80;;;;;;;;;;4370139;32;70290;-64
2022/11/20 14:39:29;;;;;;;12.70;7.95;;;;;;;;;;4381387;32;69416;-63
2022/11/20 14:42:17;;;;;;;11.12;6.15;;;;;;;;;;4381523;32;67646;-63
2022/11/20 14:45:05;;;;;;;12.57;7.60;;;;;;;;;;4360645;32;72267;-63
2022/11/20 14:47:53;;;;;;;12.07;7.40;;;;;;;;;;4370641;32;70600;-63
2022/11/20 14:50:40;;;;;;;10.23;7.05;;;;;;;;;;4381275;32;69247;-64
2022/11/20 14:53:26;;;;;;;10.20;6.57;;;;;;;;;;4348918;32;66351;-63
2022/11/20 14:56:22;;;;;;;9.93;6.07;;;;;;;;;;4382447;32;70697;-64
2022/11/20 14:59:10;;;;;;;16.73;6.90;;;;;;;;;;4370733;32;66067;-64
2022/11/20 15:02:06;;;;;;;11.12;6.75;;;;;;;;;;4349014;32;68198;-64
2022/11/20 15:04:59;;;;;;;9.95;6.03;;;;;;;;;;4370335;32;60701;-64
2022/11/20 15:07:49;;;;;;;11.25;6.45;;;;;;;;;;4381150;32;70110;-64
2022/11/20 15:10:36;;;;;;;9.32;5.65;;;;;;;;;;4370557;32;69744;-63
2022/11/20 15:13:34;;;;;;;9.82;5.85;;;;;;;;;;4370933;32;67761;-64
2022/11/20 15:16:22;;;;;;;10.13;6.32;;;;;;;;;;4381543;32;59846;-64
2022/11/20 15:19:17;;;;;;;10.30;6.22;;;;;;;;;;4369698;32;70813;-64
2022/11/20 15:22:07;;;;;;;9.02;5.85;;;;;;;;;;4381176;32;69749;-64
2022/11/20 15:24:54;;;;;;;13.10;7.12;;;;;;;;;;4370592;32;66650;-64
2022/11/20 15:27:41;;;;;;;11.80;6.10;;;;;;;;;;4380926;32;71663;-64
2022/11/20 15:30:28;;;;;;;9.98;6.20;;;;;;;;;;4370443;32;65142;-64
2022/11/20 15:33:16;;;;;;;10.52;6.18;;;;;;;;;;4370011;32;67490;-64
2022/11/20 15:36:03;;;;;;;12.27;7.18;;;;;;;;;;4361151;32;60064;-63
2022/11/20 15:38:50;;;;;;;12.45;7.05;;;;;;;;;;4372208;32;71976;-65
2022/11/20 15:41:38;;;;;;;13.45;7.60;;;;;;;;;;4351335;32;66348;-64
2022/11/20 15:44:24;;;;;;;12.23;7.28;;;;;;;;;;4373148;32;66797;-66
2022/11/20 15:47:11;;;;;;;;;;;;;;;;;;4362290;32;60323;-64
2022/11/20 15:49:57;;;;;;;14.48;8.05;;;;;;;;;;4371674;32;70778;-63
2022/11/20 15:52:44;;;;;;;16.17;8.40;;;;;;;;;;4372858;32;67913;-64
2022/11/20 15:55:31;;;;;;;17.87;8.02;;;;;;;;;;4361552;32;67307;-64
2022/11/20 15:58:19;;;;;;;14.10;8.35;;;;;;;;;;4362592;32;71746;-62
2022/11/20 16:01:05;;;;;;;14.80;8.10;;;;;;;;;;4372669;32;71143;-63
2022/11/20 16:03:52;;;;;;;;;;;;;;;;;;4384906;32;69535;-64
2022/11/20 16:06:41;;;;;;;17.73;9.05;;;;;;;;;;4383515;32;67609;-64
2022/11/20 16:09:28;;;;;;;17.27;9.57;;;;;;;;;;4383131;32;70748;-63
2022/11/20 16:15:44;;;;;;;;;;;;;;;;;;4383745;32;64996;-64
2022/11/20 16:18:26;;;;;;;16.12;8.93;;;;;;;;;;4374105;32;60790;-64
2022/11/20 16:21:14;;;;;;;14.25;8.07;;;;;;;;;;4361874;32;69469;-62
2022/11/20 16:24:02;;;;;;;19.85;10.02;;;;;;;;;;4384416;32;68277;-64
2022/11/20 16:26:49;;;;;;;24.98;10.40;;;;;;;;;;4382983;32;67989;-64
2022/11/20 16:29:35;;;;;;;;;;;;;;;;;;4383700;32;60415;-64
2022/11/20 16:32:22;;;;;;;14.43;8.27;;;;;;;;;;4383141;32;69840;-64
2022/11/20 16:35:12;;;;;;;18.70;9.63;;;;;;;;;;4372051;32;68871;-64
2022/11/20 16:37:59;;;;;;;18.52;9.90;;;;;;;;;;4382965;32;67770;-64
2022/11/20 16:40:46;;;;;;;21.12;9.50;;;;;;;;;;4372371;32;71846;-64
2022/11/20 16:43:33;;;;;;;17.52;10.05;;;;;;;;;;4371740;32;65645;-62
2022/11/20 16:46:21;;;;;;;18.55;10.15;;;;;;;;;;4384103;32;67964;-63
2022/11/20 16:49:12;;;;;;;20.60;9.80;;;;;;;;;;4382684;32;59433;-64
2022/11/20 16:51:59;;;;;;;20.02;11.75;;;;;;;;;;4371834;32;71720;-64
2022/11/20 16:54:46;;;;;;;20.17;10.50;;;;;;;;;;4350793;32;65876;-63
2022/11/20 16:57:34;;;;;;;23.85;11.85;;;;;;;;;;4362426;32;68091;-63
2022/11/20 17:00:21;;;;;;;21.08;12.20;;;;;;;;;;4372957;32;60027;-62
2022/11/20 17:03:08;;;;;;;18.35;9.57;;;;;;;;;;4372335;32;70633;-63
2022/11/20 17:05:54;;;;;;;18.98;10.77;;;;;;;;;;4383188;32;69920;-63
2022/11/20 17:08:41;;;;;;;20.92;10.95;;;;;;;;;;4373275;32;67181;-64
2022/11/20 17:11:28;;;;;;;17.95;9.98;;;;;;;;;;4360921;32;72244;-63
2022/11/20 17:14:15;;;;;;;18.52;9.38;;;;;;;;;;4361625;32;65797;-63
2022/11/20 17:17:01;;;;;;;;;;;;;;;;;;4382430;32;69853;-63
2022/11/20 17:19:47;;;;;;;18.42;9.82;;;;;;;;;;4382494;32;66590;-65
2022/11/20 17:22:35;;;;;;;15.40;9.35;;;;;;;;;;4371792;32;71863;-65
2022/11/20 17:25:21;;;;;;;15.05;8.38;;;;;;;;;;4372068;32;65752;-64
2022/11/20 17:28:08;;;;;;;13.80;8.07;;;;;;;;;;4382455;32;67957;-64
2022/11/20 17:31:06;;;;;;;13.73;7.80;;;;;;;;;;4382628;32;59662;-64
2022/11/20 17:33:53;;;;;;;12.80;7.50;;;;;;;;;;4371511;32;70559;-64